createdAt,value
2022-11-29T00:01:00.307Z,78.54
2022-11-29T00:03:28.884Z,79.00
2022-11-29T00:05:56.470Z,78.97
2022-11-29T00:08:25.440Z,79.57
2022-11-29T00:10:53.372Z,78.53
2022-11-29T00:13:19.871Z,79.69
2022-11-29T00:15:47.360Z,78.89
2022-11-29T00:18:14.823Z,78.89
2022-11-29T00:20:42.287Z,79.67
2022-11-29T00:23:09.765Z,79.81
2022-11-29T00:25:40.251Z,79.44
2022-11-29T00:28:07.858Z,79.89
2022-11-29T00:30:35.372Z,79.55
2022-11-29T00:33:03.677Z,79.59
2022-11-29T00:35:31.380Z,79.68
2022-11-29T00:37:58.893Z,80.20
2022-11-29T00:40:26.391Z,79.62
2022-11-29T00:42:55.244Z,79.87
2022-11-29T00:45:22.719Z,80.20
2022-11-29T00:47:50.173Z,79.62
2022-11-29T00:50:17.678Z,79.90
2022-11-29T00:52:45.161Z,79.15
2022-11-29T00:55:12.640Z,79.55
2022-11-29T00:57:40.130Z,79.10
2022-11-29T01:00:10.330Z,79.33
2022-11-29T01:02:37.855Z,79.66
2022-11-29T01:05:05.897Z,79.09
2022-11-29T01:07:33.300Z,79.75
2022-11-29T01:10:00.823Z,79.61
2022-11-29T01:12:28.331Z,79.85
2022-11-29T01:14:55.828Z,79.87
2022-11-29T01:17:24.685Z,79.76
2022-11-29T01:19:52.150Z,79.82
2022-11-29T01:22:19.699Z,79.73
2022-11-29T01:24:47.271Z,79.55
2022-11-29T01:27:14.776Z,79.25
2022-11-29T01:29:42.411Z,79.33
2022-11-29T01:32:10.010Z,80.24
2022-11-29T01:34:38.876Z,79.57
2022-11-29T01:37:06.385Z,79.56
2022-11-29T01:39:33.903Z,79.13
2022-11-29T01:42:02.235Z,78.88
2022-11-29T01:45:02.296Z,78.68
2022-11-29T01:47:30.640Z,79.33
2022-11-29T01:50:00.292Z,79.51
2022-11-29T01:52:31.482Z,79.44
2022-11-29T01:55:02.789Z,78.94
2022-11-29T01:57:32.272Z,79.17
2022-11-29T02:00:07.340Z,78.94
2022-11-29T02:02:37.836Z,79.60
2022-11-29T02:05:08.255Z,79.37
2022-11-29T02:07:36.730Z,79.51
2022-11-29T02:10:06.109Z,79.91
2022-11-29T02:12:45.388Z,80.25
2022-11-29T02:15:28.054Z,81.67
2022-11-29T02:18:07.520Z,81.67
2022-11-29T02:21:23.930Z,82.90
2022-11-29T02:24:21.792Z,83.50
2022-11-29T02:27:17.595Z,84.45
2022-11-29T02:30:07.348Z,85.88
2022-11-29T02:33:19.796Z,86.52
2022-11-29T02:36:19.908Z,87.37
2022-11-29T02:39:02.552Z,88.11
2022-11-29T02:41:43.687Z,87.77
2022-11-29T02:44:47.527Z,87.37
2022-11-29T02:47:26.737Z,88.35
2022-11-29T02:50:12.985Z,88.69
2022-11-29T02:52:49.918Z,89.65
2022-11-29T02:55:23.680Z,89.95
2022-11-29T02:57:59.384Z,90.10
2022-11-29T03:00:27.291Z,90.12
2022-11-29T03:03:03.127Z,89.66
2022-11-29T03:05:41.835Z,88.88
2022-11-29T03:08:17.522Z,90.10
2022-11-29T03:10:56.309Z,89.75
2022-11-29T03:13:33.902Z,88.85
2022-11-29T03:16:11.437Z,87.92
2022-11-29T03:18:51.916Z,88.47
2022-11-29T03:21:34.159Z,88.63
2022-11-29T03:24:07.187Z,88.56
2022-11-29T03:26:39.058Z,88.52
2022-11-29T03:29:10.551Z,89.20
2022-11-29T03:31:43.392Z,89.01
2022-11-29T03:34:20.363Z,89.54
2022-11-29T03:36:59.152Z,89.39
2022-11-29T03:39:39.928Z,90.22
2022-11-29T03:42:12.546Z,90.37
2022-11-29T03:44:46.565Z,90.62
2022-11-29T03:47:18.111Z,90.92
2022-11-29T03:49:52.661Z,89.61
2022-11-29T03:52:27.785Z,90.31
2022-11-29T03:55:08.014Z,91.11
2022-11-29T03:57:46.066Z,90.55
2022-11-29T04:00:14.816Z,91.44
2022-11-29T04:03:08.464Z,92.08
2022-11-29T04:05:48.287Z,91.60
2022-11-29T04:08:44.717Z,91.06
2022-11-29T04:11:54.568Z,92.06
2022-11-29T04:14:34.729Z,92.79
2022-11-29T04:17:23.195Z,91.85
2022-11-29T04:20:39.155Z,92.37
2022-11-29T04:23:33.545Z,93.05
2022-11-29T04:26:33.547Z,92.62
2022-11-29T04:29:16.588Z,92.88
2022-11-29T04:32:04.199Z,92.51
2022-11-29T04:34:53.550Z,93.20
2022-11-29T04:37:50.263Z,92.76
2022-11-29T04:40:38.908Z,93.63
2022-11-29T04:43:25.428Z,92.79
2022-11-29T04:46:25.328Z,92.15
2022-11-29T04:49:10.421Z,92.29
2022-11-29T04:51:57.320Z,92.88
2022-11-29T04:54:33.678Z,91.80
2022-11-29T04:57:08.446Z,91.58
2022-11-29T04:59:44.917Z,91.59
2022-11-29T05:02:23.815Z,92.38
2022-11-29T05:04:57.076Z,92.84
2022-11-29T05:07:34.149Z,92.19
2022-11-29T05:10:17.164Z,91.74
2022-11-29T05:12:54.370Z,92.33
2022-11-29T05:15:45.081Z,92.50
2022-11-29T05:18:21.172Z,91.83
2022-11-29T05:21:00.277Z,92.03
2022-11-29T05:23:40.769Z,91.86
2022-11-29T05:26:15.784Z,91.45
2022-11-29T05:28:54.955Z,90.70
2022-11-29T05:31:48.566Z,90.69
2022-11-29T05:34:35.257Z,90.38
2022-11-29T05:37:13.787Z,91.31
2022-11-29T05:39:56.896Z,90.11
2022-11-29T05:42:51.720Z,90.98
2022-11-29T05:45:26.631Z,90.96
2022-11-29T05:48:01.433Z,90.70
2022-11-29T05:50:36.046Z,90.10
2022-11-29T05:53:16.454Z,90.53
2022-11-29T05:55:54.798Z,90.33
2022-11-29T05:58:30.861Z,90.56
2022-11-29T06:01:06.628Z,90.23
2022-11-29T06:03:39.918Z,90.26
2022-11-29T06:06:16.499Z,90.32
2022-11-29T06:08:49.598Z,89.95
2022-11-29T06:11:22.749Z,89.59
2022-11-29T06:14:03.123Z,89.72
2022-11-29T06:16:53.159Z,89.64
2022-11-29T06:19:57.353Z,89.46
2022-11-29T06:22:41.143Z,89.41
2022-11-29T06:25:24.594Z,88.91
2022-11-29T06:28:09.136Z,89.31
2022-11-29T06:30:52.991Z,88.95
2022-11-29T06:33:25.928Z,89.04
2022-11-29T06:36:14.686Z,88.26
2022-11-29T06:38:42.522Z,88.54
2022-11-29T06:41:17.226Z,88.25
2022-11-29T06:43:45.303Z,88.40
2022-11-29T06:46:16.523Z,88.35
2022-11-29T06:48:53.732Z,88.59
2022-11-29T06:51:30.318Z,88.82
2022-11-29T06:54:05.381Z,89.25
2022-11-29T06:56:42.462Z,88.46
2022-11-29T06:59:24.899Z,89.08
2022-11-29T07:01:58.203Z,89.80
2022-11-29T07:04:53.217Z,89.80
2022-11-29T07:07:23.514Z,89.87
2022-11-29T07:09:55.038Z,90.05
2022-11-29T07:12:23.156Z,90.51
2022-11-29T07:14:50.816Z,90.13
2022-11-29T07:17:27.608Z,90.40
2022-11-29T07:20:04.586Z,90.22
2022-11-29T07:22:46.218Z,90.32
2022-11-29T07:25:25.522Z,90.92
2022-11-29T07:28:00.238Z,91.41
2022-11-29T07:30:34.370Z,90.81
2022-11-29T07:33:09.759Z,90.42
2022-11-29T07:35:48.394Z,91.59
2022-11-29T07:38:25.866Z,91.56
2022-11-29T07:40:58.841Z,92.08
2022-11-29T07:43:38.288Z,91.86
2022-11-29T07:46:05.823Z,92.05
2022-11-29T07:48:33.434Z,91.50
2022-11-29T07:51:02.590Z,91.24
2022-11-29T07:53:30.450Z,91.43
2022-11-29T07:55:59.099Z,91.24
2022-11-29T07:58:26.630Z,91.09
2022-11-29T08:00:54.179Z,91.39
2022-11-29T08:03:21.707Z,90.80
2022-11-29T08:05:49.397Z,91.10
2022-11-29T08:08:18.219Z,91.39
2022-11-29T08:10:45.942Z,91.28
2022-11-29T08:13:13.764Z,91.61
2022-11-29T08:15:45.248Z,90.74
2022-11-29T08:18:12.799Z,90.41
2022-11-29T08:20:41.658Z,90.59
2022-11-29T08:23:12.743Z,90.69
2022-11-29T08:25:41.654Z,90.89
2022-11-29T08:28:09.878Z,89.97
2022-11-29T08:30:37.475Z,90.04
2022-11-29T08:33:05.679Z,89.58
2022-11-29T08:35:35.460Z,89.41
2022-11-29T08:38:03.775Z,89.70
2022-11-29T08:40:31.298Z,88.72
2022-11-29T08:43:00.171Z,89.48
2022-11-29T08:45:27.722Z,88.38
2022-11-29T08:47:55.254Z,87.57
2022-11-29T08:50:22.811Z,87.61
2022-11-29T08:53:08.281Z,87.97
2022-11-29T08:55:39.570Z,88.14
2022-11-29T08:58:10.138Z,88.31
2022-11-29T09:00:38.302Z,87.77
2022-11-29T09:03:22.016Z,87.48
2022-11-29T09:05:49.839Z,87.32
2022-11-29T09:08:17.396Z,87.01
2022-11-29T09:10:45.246Z,87.47
2022-11-29T09:13:14.214Z,87.18
2022-11-29T09:15:43.428Z,86.92
2022-11-29T09:18:11.514Z,86.24
2022-11-29T09:20:38.864Z,86.65
2022-11-29T09:23:06.413Z,86.17
2022-11-29T09:25:33.943Z,86.03
2022-11-29T09:28:03.013Z,85.15
2022-11-29T09:30:31.953Z,85.25
2022-11-29T09:33:02.557Z,84.71
2022-11-29T09:35:30.421Z,85.07
2022-11-29T09:37:57.901Z,85.30
2022-11-29T09:40:32.446Z,85.63
2022-11-29T09:43:07.286Z,85.49
2022-11-29T09:45:41.965Z,84.78
2022-11-29T09:48:32.255Z,83.72
2022-11-29T09:51:10.714Z,83.32
2022-11-29T09:53:54.384Z,83.42
2022-11-29T09:56:28.870Z,83.24
2022-11-29T09:59:01.097Z,82.99
2022-11-29T10:01:34.254Z,82.88
2022-11-29T10:04:04.640Z,83.11
2022-11-29T10:06:38.567Z,83.15
2022-11-29T10:09:16.501Z,82.40
2022-11-29T10:11:52.131Z,82.33
2022-11-29T10:14:25.500Z,81.75
2022-11-29T10:17:04.098Z,81.75
2022-11-29T10:19:35.993Z,82.07
2022-11-29T10:22:07.213Z,81.85
2022-11-29T10:24:35.806Z,80.97
2022-11-29T10:27:10.842Z,81.04
2022-11-29T10:29:39.509Z,80.55
2022-11-29T10:32:14.766Z,80.57
2022-11-29T10:34:43.775Z,80.59
2022-11-29T10:37:15.382Z,81.12
2022-11-29T10:39:46.207Z,80.44
2022-11-29T10:42:31.650Z,80.15
2022-11-29T10:45:00.288Z,80.26
2022-11-29T10:47:29.293Z,80.36
2022-11-29T10:49:56.843Z,80.86
2022-11-29T10:52:25.131Z,80.67
2022-11-29T10:54:56.914Z,80.43
2022-11-29T10:57:24.505Z,81.02
2022-11-29T11:00:00.960Z,81.04
2022-11-29T11:02:30.247Z,80.45
2022-11-29T11:04:58.050Z,80.89
2022-11-29T11:07:28.950Z,81.01
2022-11-29T11:09:58.479Z,80.92
2022-11-29T11:12:28.470Z,80.81
2022-11-29T11:15:15.375Z,80.85
2022-11-29T11:17:56.583Z,80.64
2022-11-29T11:20:24.786Z,81.11
2022-11-29T11:22:58.859Z,81.19
2022-11-29T11:25:30.252Z,80.73
2022-11-29T11:27:58.655Z,81.09
2022-11-29T11:30:29.768Z,80.24
2022-11-29T11:33:20.182Z,79.91
2022-11-29T11:36:02.104Z,79.81
2022-11-29T11:38:30.363Z,80.58
2022-11-29T11:41:05.206Z,79.82
2022-11-29T11:43:33.999Z,79.56
2022-11-29T11:46:01.605Z,79.54
2022-11-29T11:48:30.623Z,79.60
2022-11-29T11:51:01.568Z,79.15
2022-11-29T11:53:33.436Z,79.31
2022-11-29T11:56:02.709Z,79.11
2022-11-29T11:58:32.216Z,79.15
2022-11-29T12:01:14.436Z,78.49
2022-11-29T12:03:51.581Z,79.18
2022-11-29T12:06:32.710Z,78.69
2022-11-29T12:09:06.039Z,78.79
2022-11-29T12:11:42.026Z,78.45
2022-11-29T12:14:16.811Z,78.77
2022-11-29T12:16:48.051Z,78.59
2022-11-29T12:19:24.393Z,78.83
2022-11-29T12:22:00.606Z,78.42
2022-11-29T12:24:31.677Z,77.88
2022-11-29T12:27:04.183Z,78.34
2022-11-29T12:29:35.248Z,78.66
2022-11-29T12:32:15.622Z,78.42
2022-11-29T12:35:11.845Z,78.43
2022-11-29T12:37:50.332Z,79.62
2022-11-29T12:40:28.829Z,79.36
2022-11-29T12:43:03.621Z,79.39
2022-11-29T12:45:42.697Z,79.24
2022-11-29T12:48:25.473Z,79.40
2022-11-29T12:51:02.632Z,79.58
2022-11-29T12:53:45.851Z,79.62
2022-11-29T12:56:20.940Z,79.83
2022-11-29T12:59:00.007Z,79.88
2022-11-29T13:01:36.984Z,80.06
2022-11-29T13:04:16.673Z,79.15
2022-11-29T13:06:53.991Z,79.31
2022-11-29T13:09:55.257Z,79.18
2022-11-29T13:12:32.785Z,79.30
2022-11-29T13:15:04.076Z,79.50
2022-11-29T13:17:39.417Z,79.10
2022-11-29T13:20:24.896Z,79.43
2022-11-29T13:22:59.952Z,79.76
2022-11-29T13:25:31.335Z,80.03
2022-11-29T13:28:02.714Z,80.37
2022-11-29T13:30:30.459Z,79.97
2022-11-29T13:33:03.587Z,79.86
2022-11-29T13:35:37.183Z,79.74
2022-11-29T13:38:14.296Z,79.54
2022-11-29T13:40:53.062Z,80.03
2022-11-29T13:43:30.309Z,79.62
2022-11-29T13:46:06.665Z,80.62
2022-11-29T13:48:37.109Z,80.31
2022-11-29T13:51:31.231Z,80.80
2022-11-29T13:54:03.254Z,80.58
2022-11-29T13:56:36.773Z,79.92
2022-11-29T13:59:09.088Z,80.56
2022-11-29T14:01:48.225Z,81.26
2022-11-29T14:04:25.905Z,80.80
2022-11-29T14:07:04.786Z,80.91
2022-11-29T14:09:44.206Z,80.60
2022-11-29T14:12:36.615Z,80.62
2022-11-29T14:15:15.525Z,80.53
2022-11-29T14:17:57.668Z,81.02
2022-11-29T14:20:58.742Z,80.86
2022-11-29T14:23:35.447Z,80.47
2022-11-29T14:26:28.615Z,80.70
2022-11-29T14:28:56.646Z,80.84
2022-11-29T14:31:53.753Z,81.45
2022-11-29T14:34:37.755Z,80.53
2022-11-29T14:37:21.081Z,81.10
2022-11-29T14:39:52.201Z,80.58
2022-11-29T14:42:22.734Z,80.92
2022-11-29T14:44:52.807Z,80.48
2022-11-29T14:47:31.675Z,80.81
2022-11-29T14:50:03.614Z,81.18
2022-11-29T14:52:33.956Z,80.86
2022-11-29T14:55:10.107Z,81.07
2022-11-29T14:58:19.801Z,81.32
2022-11-29T15:01:10.950Z,80.51
2022-11-29T15:03:45.065Z,80.91
2022-11-29T15:06:17.787Z,80.85
2022-11-29T15:08:54.996Z,81.12
2022-11-29T15:11:32.469Z,81.22
2022-11-29T15:14:05.901Z,80.95
2022-11-29T15:16:59.262Z,80.95
2022-11-29T15:20:12.200Z,81.08
2022-11-29T15:22:48.944Z,81.17
2022-11-29T15:25:19.202Z,81.49
2022-11-29T15:27:54.247Z,81.41
2022-11-29T15:30:31.258Z,81.56
2022-11-29T15:33:00.669Z,81.65
2022-11-29T15:35:28.707Z,80.99
2022-11-29T15:37:56.342Z,81.51
2022-11-29T15:40:31.253Z,81.24
2022-11-29T15:43:05.018Z,81.45
2022-11-29T15:45:35.700Z,81.57
2022-11-29T15:48:17.043Z,81.93
2022-11-29T15:50:50.155Z,81.50
2022-11-29T15:53:22.440Z,80.68
2022-11-29T15:55:53.278Z,80.69
2022-11-29T15:58:21.597Z,80.77
2022-11-29T16:00:52.424Z,80.74
2022-11-29T16:03:25.160Z,80.87
2022-11-29T16:06:01.033Z,80.80
2022-11-29T16:08:33.467Z,81.03
2022-11-29T16:11:01.630Z,80.33
2022-11-29T16:13:40.086Z,80.36
2022-11-29T16:16:17.149Z,80.09
2022-11-29T16:18:47.189Z,80.19
2022-11-29T16:21:33.212Z,79.94
2022-11-29T16:24:12.340Z,79.76
2022-11-29T16:26:43.972Z,80.23
2022-11-29T16:29:24.354Z,80.59
2022-11-29T16:31:53.851Z,80.12
2022-11-29T16:34:27.434Z,80.30
2022-11-29T16:37:04.520Z,79.83
2022-11-29T16:39:32.444Z,79.97
2022-11-29T16:42:07.754Z,80.21
2022-11-29T16:44:59.133Z,80.13
2022-11-29T16:47:30.184Z,80.38
2022-11-29T16:50:18.511Z,79.20
2022-11-29T16:52:46.502Z,79.36
2022-11-29T16:55:15.335Z,79.53
2022-11-29T16:57:43.155Z,79.10
2022-11-29T17:00:13.272Z,79.38
2022-11-29T17:02:42.184Z,79.43
2022-11-29T17:05:09.950Z,78.92
2022-11-29T17:07:39.600Z,78.80
2022-11-29T17:10:11.748Z,78.94
2022-11-29T17:12:42.234Z,79.21
2022-11-29T17:15:14.219Z,78.87
2022-11-29T17:17:44.157Z,78.84
2022-11-29T17:20:13.146Z,79.28
2022-11-29T17:22:40.676Z,79.07
2022-11-29T17:25:08.993Z,79.10
2022-11-29T17:27:36.611Z,79.55
2022-11-29T17:30:04.489Z,79.00
2022-11-29T17:32:34.829Z,78.39
2022-11-29T17:35:03.699Z,77.52
2022-11-29T17:37:31.656Z,76.69
2022-11-29T17:39:59.151Z,76.14
2022-11-29T17:42:27.709Z,75.68
2022-11-29T17:44:55.181Z,75.97
2022-11-29T17:47:22.650Z,75.64
2022-11-29T17:49:50.098Z,75.58
2022-11-29T17:52:18.904Z,75.16
2022-11-29T17:54:46.395Z,75.18
2022-11-29T17:57:13.853Z,74.99
2022-11-29T17:59:41.300Z,75.28
2022-11-29T18:02:10.642Z,75.40
2022-11-29T18:04:41.853Z,75.42
2022-11-29T18:07:09.311Z,75.63
2022-11-29T18:09:38.094Z,75.17
2022-11-29T18:12:05.762Z,74.72
2022-11-29T18:14:34.087Z,74.66
2022-11-29T18:17:01.589Z,74.39
2022-11-29T18:19:32.142Z,74.25
2022-11-29T18:21:59.662Z,74.19
2022-11-29T18:24:27.133Z,74.23
2022-11-29T18:26:55.910Z,74.49
2022-11-29T18:29:24.029Z,74.72
2022-11-29T18:31:51.351Z,74.13
2022-11-29T18:34:18.843Z,74.25
2022-11-29T18:36:48.124Z,74.29
2022-11-29T18:39:17.598Z,74.05
2022-11-29T18:41:47.493Z,73.83
2022-11-29T18:44:18.014Z,74.01
2022-11-29T18:46:46.089Z,74.42
2022-11-29T18:49:14.246Z,74.30
2022-11-29T18:51:44.462Z,74.07
2022-11-29T18:54:12.688Z,74.18
2022-11-29T18:56:40.424Z,73.68
2022-11-29T18:59:10.763Z,74.10
2022-11-29T19:01:42.562Z,74.31
2022-11-29T19:04:13.136Z,73.85
2022-11-29T19:06:41.463Z,74.26
2022-11-29T19:09:12.902Z,73.97
2022-11-29T19:11:40.812Z,74.35
2022-11-29T19:14:11.589Z,74.26
2022-11-29T19:16:42.455Z,74.30
2022-11-29T19:19:10.585Z,74.11
2022-11-29T19:21:39.597Z,74.05
2022-11-29T19:24:13.908Z,74.09
2022-11-29T19:26:44.385Z,74.72
2022-11-29T19:29:12.502Z,74.38
2022-11-29T19:31:42.295Z,74.86
2022-11-29T19:34:09.775Z,75.13
2022-11-29T19:36:42.433Z,74.67
2022-11-29T19:39:13.185Z,74.55
2022-11-29T19:41:42.078Z,74.95
2022-11-29T19:44:09.663Z,75.16
2022-11-29T19:46:38.934Z,74.87
2022-11-29T19:49:09.010Z,74.92
2022-11-29T19:51:36.619Z,75.21
2022-11-29T19:54:06.626Z,75.36
2022-11-29T19:56:34.245Z,75.08
2022-11-29T19:59:01.697Z,75.31
2022-11-29T20:01:39.238Z,75.45
2022-11-29T20:04:09.657Z,75.59
2022-11-29T20:06:37.140Z,75.24
2022-11-29T20:09:06.339Z,75.22
2022-11-29T20:11:33.819Z,75.62
2022-11-29T20:14:03.117Z,75.03
2022-11-29T20:16:32.077Z,75.57
2022-11-29T20:19:01.526Z,75.26
2022-11-29T20:21:32.577Z,75.92
2022-11-29T20:24:02.145Z,75.97
2022-11-29T20:26:31.416Z,76.35
2022-11-29T20:28:59.770Z,76.67
2022-11-29T20:31:27.412Z,76.49
2022-11-29T20:33:57.209Z,76.26
2022-11-29T20:36:38.604Z,76.01
2022-11-29T20:39:18.238Z,75.93
2022-11-29T20:41:56.245Z,75.66
2022-11-29T20:44:28.078Z,76.24
2022-11-29T20:46:55.914Z,76.35
2022-11-29T20:49:23.826Z,76.68
2022-11-29T20:51:59.003Z,77.06
2022-11-29T20:54:26.564Z,77.42
2022-11-29T20:56:54.041Z,77.34
2022-11-29T20:59:22.539Z,77.64
2022-11-29T21:01:50.124Z,77.92
2022-11-29T21:04:22.944Z,77.63
2022-11-29T21:06:50.952Z,77.32
2022-11-29T21:09:19.758Z,77.52
2022-11-29T21:11:47.721Z,77.50
2022-11-29T21:14:16.774Z,77.76
2022-11-29T21:16:44.670Z,77.74
2022-11-29T21:19:19.844Z,77.13
2022-11-29T21:21:59.555Z,77.21
2022-11-29T21:24:39.883Z,76.95
2022-11-29T21:27:14.383Z,77.14
2022-11-29T21:29:42.383Z,77.28
2022-11-29T21:32:21.272Z,77.20
2022-11-29T21:34:48.897Z,77.70
2022-11-29T21:37:19.173Z,77.56
2022-11-29T21:39:49.192Z,76.75
2022-11-29T21:42:16.788Z,77.43
2022-11-29T21:44:44.739Z,77.50
2022-11-29T21:47:12.909Z,77.32
2022-11-29T21:49:40.448Z,77.46
2022-11-29T21:52:07.995Z,77.49
2022-11-29T21:54:35.467Z,77.12
2022-11-29T21:57:04.484Z,77.35
2022-11-29T21:59:32.007Z,77.51
2022-11-29T22:01:59.488Z,76.80
2022-11-29T22:04:27.189Z,77.07
2022-11-29T22:06:54.885Z,77.60
2022-11-29T22:09:22.380Z,77.38
2022-11-29T22:11:49.847Z,77.62
2022-11-29T22:14:19.051Z,77.54
2022-11-29T22:16:48.622Z,77.51
2022-11-29T22:19:18.057Z,77.48
2022-11-29T22:21:47.309Z,77.03
2022-11-29T22:24:16.538Z,77.54
2022-11-29T22:26:44.404Z,77.64
2022-11-29T22:29:13.920Z,77.94
2022-11-29T22:31:43.136Z,77.48
2022-11-29T22:34:11.119Z,77.65
2022-11-29T22:36:39.210Z,77.30
2022-11-29T22:39:07.061Z,77.23
2022-11-29T22:41:35.511Z,77.35
2022-11-29T22:44:03.327Z,77.26
2022-11-29T22:46:30.887Z,77.95
2022-11-29T22:49:00.539Z,78.24
2022-11-29T22:51:30.356Z,77.28
2022-11-29T22:53:59.513Z,76.98
2022-11-29T22:56:28.823Z,76.90
2022-11-29T22:58:56.793Z,77.54
2022-11-29T23:01:26.161Z,77.15
2022-11-29T23:03:55.596Z,77.34
2022-11-29T23:06:26.823Z,77.09
2022-11-29T23:08:56.071Z,77.22
2022-11-29T23:11:25.532Z,77.72
2022-11-29T23:13:53.119Z,77.36
2022-11-29T23:16:22.492Z,77.11
2022-11-29T23:18:50.129Z,77.58
2022-11-29T23:21:20.271Z,76.84
2022-11-29T23:23:53.045Z,77.47
2022-11-29T23:26:26.346Z,77.07
2022-11-29T23:28:54.996Z,77.18
2022-11-29T23:31:23.871Z,77.00
2022-11-29T23:33:51.547Z,77.58
2022-11-29T23:36:19.101Z,77.12
2022-11-29T23:38:46.830Z,76.82
2022-11-29T23:41:15.938Z,77.51
2022-11-29T23:43:43.453Z,77.53
2022-11-29T23:46:14.934Z,77.29
2022-11-29T23:48:43.122Z,76.96
2022-11-29T23:51:11.440Z,76.31
2022-11-29T23:53:39.935Z,76.51
2022-11-29T23:56:10.987Z,76.92
2022-11-29T23:58:40.044Z,77.03
